sensor_id;sensor_type;location;lat;lon;timestamp;P1;durP1;ratioP1;P2;durP2;ratioP2
31782;SDS011;18351;47.560;9.708;2022-11-20T00:01:03;7.10;;;4.20;;
31782;SDS011;18351;47.560;9.708;2022-11-20T00:03:30;7.83;;;4.50;;
31782;SDS011;18351;47.560;9.708;2022-11-20T00:06:15;12.40;;;4.13;;
31782;SDS011;18351;47.560;9.708;2022-11-20T00:08:42;6.18;;;4.38;;
31782;SDS011;18351;47.560;9.708;2022-11-20T00:11:09;6.68;;;4.90;;
31782;SDS011;18351;47.560;9.708;2022-11-20T00:13:37;9.77;;;5.43;;
31782;SDS011;18351;47.560;9.708;2022-11-20T00:16:03;7.63;;;5.47;;
31782;SDS011;18351;47.560;9.708;2022-11-20T00:18:30;7.50;;;4.85;;
31782;SDS011;18351;47.560;9.708;2022-11-20T00:21:10;5.82;;;4.25;;
31782;SDS011;18351;47.560;9.708;2022-11-20T00:23:41;6.38;;;4.38;;
31782;SDS011;18351;47.560;9.708;2022-11-20T00:26:08;7.95;;;4.03;;
31782;SDS011;18351;47.560;9.708;2022-11-20T00:28:35;5.97;;;4.20;;
31782;SDS011;18351;47.560;9.708;2022-11-20T00:31:05;7.60;;;4.35;;
31782;SDS011;18351;47.560;9.708;2022-11-20T00:33:36;7.65;;;3.75;;
31782;SDS011;18351;47.560;9.708;2022-11-20T00:36:06;10.02;;;4.50;;
31782;SDS011;18351;47.560;9.708;2022-11-20T00:38:33;8.43;;;5.07;;
31782;SDS011;18351;47.560;9.708;2022-11-20T00:41:00;8.43;;;5.07;;
31782;SDS011;18351;47.560;9.708;2022-11-20T00:43:27;5.57;;;4.50;;
31782;SDS011;18351;47.560;9.708;2022-11-20T00:46:00;9.40;;;5.18;;
31782;SDS011;18351;47.560;9.708;2022-11-20T00:48:27;6.50;;;5.07;;
31782;SDS011;18351;47.560;9.708;2022-11-20T00:50:53;6.43;;;5.18;;
31782;SDS011;18351;47.560;9.708;2022-11-20T00:53:19;5.95;;;4.47;;
31782;SDS011;18351;47.560;9.708;2022-11-20T00:56:01;7.10;;;5.18;;
31782;SDS011;18351;47.560;9.708;2022-11-20T00:58:32;10.45;;;5.00;;
31782;SDS011;18351;47.560;9.708;2022-11-20T01:03:32;6.82;;;4.90;;
31782;SDS011;18351;47.560;9.708;2022-11-20T01:06:02;6.68;;;4.80;;
31782;SDS011;18351;47.560;9.708;2022-11-20T01:08:33;5.85;;;4.65;;
31782;SDS011;18351;47.560;9.708;2022-11-20T01:11:05;7.50;;;4.78;;
31782;SDS011;18351;47.560;9.708;2022-11-20T01:13:33;7.43;;;4.95;;
31782;SDS011;18351;47.560;9.708;2022-11-20T01:16:12;6.97;;;4.88;;
31782;SDS011;18351;47.560;9.708;2022-11-20T01:18:47;8.18;;;5.18;;
31782;SDS011;18351;47.560;9.708;2022-11-20T01:21:25;7.22;;;5.50;;
31782;SDS011;18351;47.560;9.708;2022-11-20T01:23:52;9.23;;;5.60;;
31782;SDS011;18351;47.560;9.708;2022-11-20T01:26:19;11.63;;;5.88;;
31782;SDS011;18351;47.560;9.708;2022-11-20T01:28:46;9.20;;;5.88;;
31782;SDS011;18351;47.560;9.708;2022-11-20T01:33:39;7.90;;;5.47;;
31782;SDS011;18351;47.560;9.708;2022-11-20T01:36:06;8.15;;;5.63;;
31782;SDS011;18351;47.560;9.708;2022-11-20T01:38:33;7.85;;;5.95;;
31782;SDS011;18351;47.560;9.708;2022-11-20T01:40:58;9.68;;;6.32;;
31782;SDS011;18351;47.560;9.708;2022-11-20T01:43:24;8.40;;;5.60;;
31782;SDS011;18351;47.560;9.708;2022-11-20T01:48:41;12.18;;;6.60;;
31782;SDS011;18351;47.560;9.708;2022-11-20T01:51:30;9.77;;;6.28;;
31782;SDS011;18351;47.560;9.708;2022-11-20T01:54:06;13.02;;;5.72;;
31782;SDS011;18351;47.560;9.708;2022-11-20T01:56:37;9.43;;;5.75;;
31782;SDS011;18351;47.560;9.708;2022-11-20T01:59:06;10.68;;;6.35;;
31782;SDS011;18351;47.560;9.708;2022-11-20T02:01:33;13.82;;;6.60;;
31782;SDS011;18351;47.560;9.708;2022-11-20T02:03:59;9.00;;;6.35;;
31782;SDS011;18351;47.560;9.708;2022-11-20T02:06:27;8.50;;;5.95;;
31782;SDS011;18351;47.560;9.708;2022-11-20T02:08:53;10.60;;;6.10;;
31782;SDS011;18351;47.560;9.708;2022-11-20T02:11:19;9.02;;;5.97;;
31782;SDS011;18351;47.560;9.708;2022-11-20T02:13:45;10.35;;;6.80;;
31782;SDS011;18351;47.560;9.708;2022-11-20T02:16:16;13.15;;;6.95;;
31782;SDS011;18351;47.560;9.708;2022-11-20T02:18:50;10.55;;;6.15;;
31782;SDS011;18351;47.560;9.708;2022-11-20T02:21:23;8.35;;;6.05;;
31782;SDS011;18351;47.560;9.708;2022-11-20T02:24:09;13.80;;;5.78;;
31782;SDS011;18351;47.560;9.708;2022-11-20T02:26:39;8.43;;;5.72;;
31782;SDS011;18351;47.560;9.708;2022-11-20T02:29:10;8.65;;;6.28;;
31782;SDS011;18351;47.560;9.708;2022-11-20T02:31:40;9.32;;;5.75;;
31782;SDS011;18351;47.560;9.708;2022-11-20T02:34:07;9.40;;;5.57;;
31782;SDS011;18351;47.560;9.708;2022-11-20T02:36:33;9.13;;;5.88;;
31782;SDS011;18351;47.560;9.708;2022-11-20T02:39:00;8.60;;;5.28;;
31782;SDS011;18351;47.560;9.708;2022-11-20T02:41:34;8.63;;;5.40;;
31782;SDS011;18351;47.560;9.708;2022-11-20T02:44:01;7.03;;;5.22;;
31782;SDS011;18351;47.560;9.708;2022-11-20T02:46:28;12.43;;;6.18;;
31782;SDS011;18351;47.560;9.708;2022-11-20T02:48:55;13.68;;;6.20;;
31782;SDS011;18351;47.560;9.708;2022-11-20T02:51:20;7.05;;;5.28;;
31782;SDS011;18351;47.560;9.708;2022-11-20T02:53:46;9.77;;;5.95;;
31782;SDS011;18351;47.560;9.708;2022-11-20T02:56:12;9.20;;;5.70;;
31782;SDS011;18351;47.560;9.708;2022-11-20T02:58:37;8.55;;;5.45;;
31782;SDS011;18351;47.560;9.708;2022-11-20T03:01:03;8.02;;;5.60;;
31782;SDS011;18351;47.560;9.708;2022-11-20T03:03:28;8.07;;;5.22;;
31782;SDS011;18351;47.560;9.708;2022-11-20T03:05:54;10.43;;;5.30;;
31782;SDS011;18351;47.560;9.708;2022-11-20T03:08:19;8.02;;;5.75;;
31782;SDS011;18351;47.560;9.708;2022-11-20T03:10:45;10.10;;;5.78;;
31782;SDS011;18351;47.560;9.708;2022-11-20T03:13:11;5.85;;;4.45;;
31782;SDS011;18351;47.560;9.708;2022-11-20T03:15:36;8.52;;;5.28;;
31782;SDS011;18351;47.560;9.708;2022-11-20T03:18:02;7.50;;;5.18;;
31782;SDS011;18351;47.560;9.708;2022-11-20T03:20:28;6.15;;;4.47;;
31782;SDS011;18351;47.560;9.708;2022-11-20T03:22:54;8.50;;;5.30;;
31782;SDS011;18351;47.560;9.708;2022-11-20T03:25:20;7.30;;;4.65;;
31782;SDS011;18351;47.560;9.708;2022-11-20T03:27:46;8.07;;;4.82;;
31782;SDS011;18351;47.560;9.708;2022-11-20T03:30:12;9.05;;;4.43;;
31782;SDS011;18351;47.560;9.708;2022-11-20T03:32:38;5.30;;;3.85;;
31782;SDS011;18351;47.560;9.708;2022-11-20T03:35:04;5.00;;;3.60;;
31782;SDS011;18351;47.560;9.708;2022-11-20T03:37:30;5.20;;;3.88;;
31782;SDS011;18351;47.560;9.708;2022-11-20T03:39:56;4.95;;;3.60;;
31782;SDS011;18351;47.560;9.708;2022-11-20T03:42:21;5.30;;;3.75;;
31782;SDS011;18351;47.560;9.708;2022-11-20T03:45:06;5.53;;;3.55;;
31782;SDS011;18351;47.560;9.708;2022-11-20T03:47:32;6.60;;;3.50;;
31782;SDS011;18351;47.560;9.708;2022-11-20T03:49:57;4.72;;;3.78;;
31782;SDS011;18351;47.560;9.708;2022-11-20T03:52:23;8.05;;;3.80;;
31782;SDS011;18351;47.560;9.708;2022-11-20T03:54:49;5.93;;;4.10;;
31782;SDS011;18351;47.560;9.708;2022-11-20T03:57:14;6.47;;;3.78;;
31782;SDS011;18351;47.560;9.708;2022-11-20T03:59:40;5.97;;;4.35;;
31782;SDS011;18351;47.560;9.708;2022-11-20T04:02:05;8.23;;;3.97;;
31782;SDS011;18351;47.560;9.708;2022-11-20T04:04:31;4.60;;;3.85;;
31782;SDS011;18351;47.560;9.708;2022-11-20T04:06:56;6.72;;;4.13;;
31782;SDS011;18351;47.560;9.708;2022-11-20T04:09:22;8.35;;;4.20;;
31782;SDS011;18351;47.560;9.708;2022-11-20T04:11:47;5.35;;;4.20;;
31782;SDS011;18351;47.560;9.708;2022-11-20T04:14:14;5.78;;;3.70;;
31782;SDS011;18351;47.560;9.708;2022-11-20T04:16:41;5.30;;;3.60;;
31782;SDS011;18351;47.560;9.708;2022-11-20T04:19:11;6.97;;;3.97;;
31782;SDS011;18351;47.560;9.708;2022-11-20T04:21:41;6.00;;;4.20;;
31782;SDS011;18351;47.560;9.708;2022-11-20T04:24:07;5.80;;;3.72;;
31782;SDS011;18351;47.560;9.708;2022-11-20T04:26:33;6.03;;;3.95;;
31782;SDS011;18351;47.560;9.708;2022-11-20T04:28:59;5.13;;;3.90;;
31782;SDS011;18351;47.560;9.708;2022-11-20T04:31:28;7.18;;;3.55;;
31782;SDS011;18351;47.560;9.708;2022-11-20T04:33:59;6.22;;;3.38;;
31782;SDS011;18351;47.560;9.708;2022-11-20T04:36:29;5.18;;;3.33;;
31782;SDS011;18351;47.560;9.708;2022-11-20T04:38:56;4.55;;;3.70;;
31782;SDS011;18351;47.560;9.708;2022-11-20T04:41:24;6.30;;;3.72;;
31782;SDS011;18351;47.560;9.708;2022-11-20T04:43:52;6.18;;;4.32;;
31782;SDS011;18351;47.560;9.708;2022-11-20T04:46:24;5.97;;;3.80;;
31782;SDS011;18351;47.560;9.708;2022-11-20T04:48:50;6.53;;;3.42;;
31782;SDS011;18351;47.560;9.708;2022-11-20T04:51:16;5.80;;;3.88;;
31782;SDS011;18351;47.560;9.708;2022-11-20T04:53:42;4.97;;;3.10;;
31782;SDS011;18351;47.560;9.708;2022-11-20T04:56:08;7.53;;;4.50;;
31782;SDS011;18351;47.560;9.708;2022-11-20T04:58:35;5.90;;;3.55;;
31782;SDS011;18351;47.560;9.708;2022-11-20T05:01:02;3.58;;;3.17;;
31782;SDS011;18351;47.560;9.708;2022-11-20T05:03:32;4.47;;;3.55;;
31782;SDS011;18351;47.560;9.708;2022-11-20T05:06:02;4.60;;;3.30;;
31782;SDS011;18351;47.560;9.708;2022-11-20T05:08:29;4.95;;;3.67;;
31782;SDS011;18351;47.560;9.708;2022-11-20T05:10:59;12.57;;;3.70;;
31782;SDS011;18351;47.560;9.708;2022-11-20T05:13:29;3.67;;;3.22;;
31782;SDS011;18351;47.560;9.708;2022-11-20T05:15:55;3.83;;;2.92;;
31782;SDS011;18351;47.560;9.708;2022-11-20T05:18:25;9.35;;;2.97;;
31782;SDS011;18351;47.560;9.708;2022-11-20T05:20:54;6.40;;;3.33;;
31782;SDS011;18351;47.560;9.708;2022-11-20T05:23:20;3.88;;;2.90;;
31782;SDS011;18351;47.560;9.708;2022-11-20T05:25:46;3.15;;;2.55;;
31782;SDS011;18351;47.560;9.708;2022-11-20T05:28:12;3.85;;;2.20;;
31782;SDS011;18351;47.560;9.708;2022-11-20T05:30:37;2.50;;;2.22;;
31782;SDS011;18351;47.560;9.708;2022-11-20T05:33:03;2.85;;;2.00;;
31782;SDS011;18351;47.560;9.708;2022-11-20T05:35:28;3.15;;;2.20;;
31782;SDS011;18351;47.560;9.708;2022-11-20T05:37:54;4.47;;;2.35;;
31782;SDS011;18351;47.560;9.708;2022-11-20T05:40:19;7.38;;;2.70;;
31782;SDS011;18351;47.560;9.708;2022-11-20T05:42:45;3.28;;;1.77;;
31782;SDS011;18351;47.560;9.708;2022-11-20T05:45:10;4.65;;;2.38;;
31782;SDS011;18351;47.560;9.708;2022-11-20T05:47:36;5.90;;;2.75;;
31782;SDS011;18351;47.560;9.708;2022-11-20T05:50:02;2.95;;;2.35;;
31782;SDS011;18351;47.560;9.708;2022-11-20T05:52:28;7.20;;;3.03;;
31782;SDS011;18351;47.560;9.708;2022-11-20T05:54:54;6.03;;;2.65;;
31782;SDS011;18351;47.560;9.708;2022-11-20T05:57:19;2.97;;;2.58;;
31782;SDS011;18351;47.560;9.708;2022-11-20T05:59:45;5.22;;;2.95;;
31782;SDS011;18351;47.560;9.708;2022-11-20T06:02:11;3.15;;;2.72;;
31782;SDS011;18351;47.560;9.708;2022-11-20T06:04:36;4.15;;;3.08;;
31782;SDS011;18351;47.560;9.708;2022-11-20T06:07:02;3.28;;;2.70;;
31782;SDS011;18351;47.560;9.708;2022-11-20T06:09:29;4.13;;;2.78;;
31782;SDS011;18351;47.560;9.708;2022-11-20T06:11:54;4.80;;;2.60;;
31782;SDS011;18351;47.560;9.708;2022-11-20T06:14:20;5.65;;;2.80;;
31782;SDS011;18351;47.560;9.708;2022-11-20T06:16:45;3.25;;;2.70;;
31782;SDS011;18351;47.560;9.708;2022-11-20T06:19:11;3.45;;;2.90;;
31782;SDS011;18351;47.560;9.708;2022-11-20T06:21:37;4.88;;;2.90;;
31782;SDS011;18351;47.560;9.708;2022-11-20T06:24:02;2.90;;;2.25;;
31782;SDS011;18351;47.560;9.708;2022-11-20T06:26:28;4.40;;;2.88;;
31782;SDS011;18351;47.560;9.708;2022-11-20T06:28:55;3.63;;;2.72;;
31782;SDS011;18351;47.560;9.708;2022-11-20T06:31:24;4.55;;;2.75;;
31782;SDS011;18351;47.560;9.708;2022-11-20T06:33:50;3.95;;;2.90;;
31782;SDS011;18351;47.560;9.708;2022-11-20T06:36:16;7.35;;;3.13;;
31782;SDS011;18351;47.560;9.708;2022-11-20T06:38:44;5.13;;;3.20;;
31782;SDS011;18351;47.560;9.708;2022-11-20T06:41:11;3.30;;;3.00;;
31782;SDS011;18351;47.560;9.708;2022-11-20T06:43:38;5.38;;;2.90;;
31782;SDS011;18351;47.560;9.708;2022-11-20T06:46:04;3.30;;;2.92;;
31782;SDS011;18351;47.560;9.708;2022-11-20T06:48:30;3.80;;;2.83;;
31782;SDS011;18351;47.560;9.708;2022-11-20T06:50:57;4.65;;;2.70;;
31782;SDS011;18351;47.560;9.708;2022-11-20T06:53:23;4.10;;;2.47;;
31782;SDS011;18351;47.560;9.708;2022-11-20T06:55:50;7.18;;;2.90;;
31782;SDS011;18351;47.560;9.708;2022-11-20T06:58:16;7.18;;;3.53;;
31782;SDS011;18351;47.560;9.708;2022-11-20T07:00:43;3.05;;;2.65;;
31782;SDS011;18351;47.560;9.708;2022-11-20T07:03:09;3.75;;;2.53;;
31782;SDS011;18351;47.560;9.708;2022-11-20T07:05:36;4.47;;;2.47;;
31782;SDS011;18351;47.560;9.708;2022-11-20T07:08:03;4.68;;;2.80;;
31782;SDS011;18351;47.560;9.708;2022-11-20T07:10:29;3.47;;;2.30;;
31782;SDS011;18351;47.560;9.708;2022-11-20T07:12:55;4.25;;;2.90;;
31782;SDS011;18351;47.560;9.708;2022-11-20T07:15:22;4.45;;;2.38;;
31782;SDS011;18351;47.560;9.708;2022-11-20T07:17:48;3.15;;;2.30;;
31782;SDS011;18351;47.560;9.708;2022-11-20T07:20:14;2.47;;;2.28;;
31782;SDS011;18351;47.560;9.708;2022-11-20T07:22:40;5.40;;;2.90;;
31782;SDS011;18351;47.560;9.708;2022-11-20T07:25:06;4.95;;;2.63;;
31782;SDS011;18351;47.560;9.708;2022-11-20T07:27:32;3.00;;;2.65;;
31782;SDS011;18351;47.560;9.708;2022-11-20T07:29:58;2.70;;;2.22;;
31782;SDS011;18351;47.560;9.708;2022-11-20T07:32:23;4.95;;;2.50;;
31782;SDS011;18351;47.560;9.708;2022-11-20T07:34:49;5.68;;;2.50;;
31782;SDS011;18351;47.560;9.708;2022-11-20T07:37:15;3.70;;;2.25;;
31782;SDS011;18351;47.560;9.708;2022-11-20T07:39:41;6.00;;;2.50;;
31782;SDS011;18351;47.560;9.708;2022-11-20T07:42:07;2.35;;;2.10;;
31782;SDS011;18351;47.560;9.708;2022-11-20T07:44:33;2.58;;;2.35;;
31782;SDS011;18351;47.560;9.708;2022-11-20T07:46:59;4.50;;;2.85;;
31782;SDS011;18351;47.560;9.708;2022-11-20T07:49:24;3.00;;;2.78;;
31782;SDS011;18351;47.560;9.708;2022-11-20T07:51:50;4.43;;;2.53;;
31782;SDS011;18351;47.560;9.708;2022-11-20T07:54:18;3.70;;;2.60;;
31782;SDS011;18351;47.560;9.708;2022-11-20T07:56:44;5.25;;;2.50;;
31782;SDS011;18351;47.560;9.708;2022-11-20T07:59:10;4.25;;;2.65;;
31782;SDS011;18351;47.560;9.708;2022-11-20T08:01:36;3.63;;;2.88;;
31782;SDS011;18351;47.560;9.708;2022-11-20T08:04:02;2.95;;;2.70;;
31782;SDS011;18351;47.560;9.708;2022-11-20T08:06:28;3.47;;;3.17;;
31782;SDS011;18351;47.560;9.708;2022-11-20T08:08:53;4.43;;;3.00;;
31782;SDS011;18351;47.560;9.708;2022-11-20T08:11:19;7.35;;;3.88;;
31782;SDS011;18351;47.560;9.708;2022-11-20T08:14:03;3.65;;;3.00;;
31782;SDS011;18351;47.560;9.708;2022-11-20T08:16:38;4.80;;;3.13;;
31782;SDS011;18351;47.560;9.708;2022-11-20T08:19:12;6.78;;;2.78;;
31782;SDS011;18351;47.560;9.708;2022-11-20T08:21:39;3.33;;;2.90;;
31782;SDS011;18351;47.560;9.708;2022-11-20T08:24:05;2.70;;;2.47;;
31782;SDS011;18351;47.560;9.708;2022-11-20T08:26:32;3.13;;;2.50;;
31782;SDS011;18351;47.560;9.708;2022-11-20T08:28:58;5.93;;;3.63;;
31782;SDS011;18351;47.560;9.708;2022-11-20T08:31:25;4.57;;;3.08;;
31782;SDS011;18351;47.560;9.708;2022-11-20T08:33:51;5.45;;;3.50;;
31782;SDS011;18351;47.560;9.708;2022-11-20T08:36:18;4.40;;;2.70;;
31782;SDS011;18351;47.560;9.708;2022-11-20T08:38:51;3.90;;;2.83;;
31782;SDS011;18351;47.560;9.708;2022-11-20T08:41:18;3.33;;;3.00;;
31782;SDS011;18351;47.560;9.708;2022-11-20T08:43:55;7.70;;;3.35;;
31782;SDS011;18351;47.560;9.708;2022-11-20T08:46:26;5.40;;;3.22;;
31782;SDS011;18351;47.560;9.708;2022-11-20T08:49:14;4.43;;;3.17;;
31782;SDS011;18351;47.560;9.708;2022-11-20T08:51:40;3.55;;;2.85;;
31782;SDS011;18351;47.560;9.708;2022-11-20T08:54:06;5.20;;;3.00;;
31782;SDS011;18351;47.560;9.708;2022-11-20T08:56:32;3.47;;;2.90;;
31782;SDS011;18351;47.560;9.708;2022-11-20T08:58:58;4.88;;;3.17;;
31782;SDS011;18351;47.560;9.708;2022-11-20T09:01:24;5.68;;;3.47;;
31782;SDS011;18351;47.560;9.708;2022-11-20T09:03:51;6.78;;;3.88;;
31782;SDS011;18351;47.560;9.708;2022-11-20T09:06:16;4.65;;;3.70;;
31782;SDS011;18351;47.560;9.708;2022-11-20T09:08:42;3.60;;;3.00;;
31782;SDS011;18351;47.560;9.708;2022-11-20T09:11:08;6.05;;;3.40;;
31782;SDS011;18351;47.560;9.708;2022-11-20T09:13:34;4.43;;;3.47;;
31782;SDS011;18351;47.560;9.708;2022-11-20T09:16:09;4.05;;;3.15;;
31782;SDS011;18351;47.560;9.708;2022-11-20T09:18:35;5.07;;;3.70;;
31782;SDS011;18351;47.560;9.708;2022-11-20T09:21:03;5.60;;;3.70;;
31782;SDS011;18351;47.560;9.708;2022-11-20T09:23:36;4.65;;;4.03;;
31782;SDS011;18351;47.560;9.708;2022-11-20T09:26:05;5.25;;;4.20;;
31782;SDS011;18351;47.560;9.708;2022-11-20T09:28:38;6.50;;;5.03;;
31782;SDS011;18351;47.560;9.708;2022-11-20T09:31:05;6.43;;;4.47;;
31782;SDS011;18351;47.560;9.708;2022-11-20T09:33:32;9.75;;;5.70;;
31782;SDS011;18351;47.560;9.708;2022-11-20T09:35:58;9.77;;;4.80;;
31782;SDS011;18351;47.560;9.708;2022-11-20T09:38:23;9.02;;;5.43;;
31782;SDS011;18351;47.560;9.708;2022-11-20T09:40:51;6.40;;;4.22;;
31782;SDS011;18351;47.560;9.708;2022-11-20T09:43:28;6.80;;;4.43;;
31782;SDS011;18351;47.560;9.708;2022-11-20T09:46:17;8.27;;;4.70;;
31782;SDS011;18351;47.560;9.708;2022-11-20T09:49:13;4.70;;;3.70;;
31782;SDS011;18351;47.560;9.708;2022-11-20T09:54:31;5.80;;;3.85;;
31782;SDS011;18351;47.560;9.708;2022-11-20T09:57:03;5.43;;;3.10;;
31782;SDS011;18351;47.560;9.708;2022-11-20T09:59:41;3.08;;;2.60;;
31782;SDS011;18351;47.560;9.708;2022-11-20T10:02:45;3.67;;;2.30;;
31782;SDS011;18351;47.560;9.708;2022-11-20T10:16:17;3.17;;;1.83;;
31782;SDS011;18351;47.560;9.708;2022-11-20T10:29:54;3.70;;;1.90;;
31782;SDS011;18351;47.560;9.708;2022-11-20T10:32:36;2.47;;;2.00;;
31782;SDS011;18351;47.560;9.708;2022-11-20T10:37:59;4.70;;;1.90;;
31782;SDS011;18351;47.560;9.708;2022-11-20T10:40:45;2.90;;;2.20;;
31782;SDS011;18351;47.560;9.708;2022-11-20T10:43:27;4.35;;;2.58;;
31782;SDS011;18351;47.560;9.708;2022-11-20T10:45:58;3.38;;;2.00;;
31782;SDS011;18351;47.560;9.708;2022-11-20T10:48:30;2.83;;;2.20;;
31782;SDS011;18351;47.560;9.708;2022-11-20T10:50:59;2.00;;;1.80;;
31782;SDS011;18351;47.560;9.708;2022-11-20T10:53:42;2.90;;;1.60;;
31782;SDS011;18351;47.560;9.708;2022-11-20T11:02:20;4.90;;;2.38;;
31782;SDS011;18351;47.560;9.708;2022-11-20T11:04:51;4.95;;;2.72;;
31782;SDS011;18351;47.560;9.708;2022-11-20T11:07:22;2.47;;;2.20;;
31782;SDS011;18351;47.560;9.708;2022-11-20T11:09:53;1.80;;;1.70;;
31782;SDS011;18351;47.560;9.708;2022-11-20T11:12:21;1.98;;;1.50;;
31782;SDS011;18351;47.560;9.708;2022-11-20T11:14:50;1.60;;;1.50;;
31782;SDS011;18351;47.560;9.708;2022-11-20T11:17:31;1.85;;;1.60;;
31782;SDS011;18351;47.560;9.708;2022-11-20T11:20:05;2.78;;;1.42;;
31782;SDS011;18351;47.560;9.708;2022-11-20T11:25:56;2.25;;;1.80;;
31782;SDS011;18351;47.560;9.708;2022-11-20T11:28:23;1.73;;;1.63;;
31782;SDS011;18351;47.560;9.708;2022-11-20T11:30:52;2.45;;;1.67;;
31782;SDS011;18351;47.560;9.708;2022-11-20T11:33:19;2.58;;;1.98;;
31782;SDS011;18351;47.560;9.708;2022-11-20T11:36:35;2.75;;;2.00;;
31782;SDS011;18351;47.560;9.708;2022-11-20T11:38:43;5.45;;;1.75;;
31782;SDS011;18351;47.560;9.708;2022-11-20T11:41:12;1.60;;;1.50;;
31782;SDS011;18351;47.560;9.708;2022-11-20T11:43:50;2.13;;;1.45;;
31782;SDS011;18351;47.560;9.708;2022-11-20T11:46:39;1.70;;;1.50;;
31782;SDS011;18351;47.560;9.708;2022-11-20T12:00:04;3.13;;;1.90;;
31782;SDS011;18351;47.560;9.708;2022-11-20T12:02:38;1.85;;;1.73;;
31782;SDS011;18351;47.560;9.708;2022-11-20T12:05:24;2.15;;;1.50;;
31782;SDS011;18351;47.560;9.708;2022-11-20T12:10:59;2.90;;;1.77;;
31782;SDS011;18351;47.560;9.708;2022-11-20T12:13:48;1.75;;;1.63;;
31782;SDS011;18351;47.560;9.708;2022-11-20T12:16:19;2.00;;;1.80;;
31782;SDS011;18351;47.560;9.708;2022-11-20T12:18:46;1.88;;;1.60;;
31782;SDS011;18351;47.560;9.708;2022-11-20T12:39:48;8.30;;;1.60;;
31782;SDS011;18351;47.560;9.708;2022-11-20T12:42:36;3.22;;;1.92;;
31782;SDS011;18351;47.560;9.708;2022-11-20T12:53:58;2.85;;;2.13;;
31782;SDS011;18351;47.560;9.708;2022-11-20T12:56:49;3.55;;;2.17;;
31782;SDS011;18351;47.560;9.708;2022-11-20T12:59:30;2.17;;;1.95;;
31782;SDS011;18351;47.560;9.708;2022-11-20T13:07:23;2.10;;;1.80;;
31782;SDS011;18351;47.560;9.708;2022-11-20T13:09:51;6.93;;;3.45;;
31782;SDS011;18351;47.560;9.708;2022-11-20T13:17:53;2.83;;;1.65;;
31782;SDS011;18351;47.560;9.708;2022-11-20T13:20:22;2.17;;;1.83;;
31782;SDS011;18351;47.560;9.708;2022-11-20T13:22:49;6.40;;;2.20;;
31782;SDS011;18351;47.560;9.708;2022-11-20T13:27:55;2.67;;;1.80;;
31782;SDS011;18351;47.560;9.708;2022-11-20T13:30:23;2.47;;;1.67;;
31782;SDS011;18351;47.560;9.708;2022-11-20T13:32:54;3.65;;;2.33;;
31782;SDS011;18351;47.560;9.708;2022-11-20T13:35:32;3.00;;;2.00;;
31782;SDS011;18351;47.560;9.708;2022-11-20T13:38:12;3.85;;;2.78;;
31782;SDS011;18351;47.560;9.708;2022-11-20T13:40:52;2.33;;;1.77;;
31782;SDS011;18351;47.560;9.708;2022-11-20T13:45:58;1.55;;;1.38;;
31782;SDS011;18351;47.560;9.708;2022-11-20T13:48:26;5.40;;;4.07;;
31782;SDS011;18351;47.560;9.708;2022-11-20T13:53:58;2.17;;;1.90;;
31782;SDS011;18351;47.560;9.708;2022-11-20T14:02:01;2.40;;;1.70;;
31782;SDS011;18351;47.560;9.708;2022-11-20T14:04:32;2.67;;;1.70;;
31782;SDS011;18351;47.560;9.708;2022-11-20T14:07:01;1.73;;;1.50;;
31782;SDS011;18351;47.560;9.708;2022-11-20T14:09:31;1.83;;;1.40;;
31782;SDS011;18351;47.560;9.708;2022-11-20T14:11:58;1.40;;;1.30;;
31782;SDS011;18351;47.560;9.708;2022-11-20T14:14:24;1.42;;;1.33;;
31782;SDS011;18351;47.560;9.708;2022-11-20T14:16:52;2.20;;;1.42;;
31782;SDS011;18351;47.560;9.708;2022-11-20T14:19:29;2.05;;;1.40;;
31782;SDS011;18351;47.560;9.708;2022-11-20T14:22:09;1.95;;;1.60;;
31782;SDS011;18351;47.560;9.708;2022-11-20T14:24:35;2.33;;;1.42;;
31782;SDS011;18351;47.560;9.708;2022-11-20T14:27:01;2.80;;;2.30;;
31782;SDS011;18351;47.560;9.708;2022-11-20T14:29:28;1.42;;;1.33;;
31782;SDS011;18351;47.560;9.708;2022-11-20T14:31:59;1.90;;;1.30;;
31782;SDS011;18351;47.560;9.708;2022-11-20T14:34:28;2.58;;;1.20;;
31782;SDS011;18351;47.560;9.708;2022-11-20T14:36:57;1.60;;;1.50;;
31782;SDS011;18351;47.560;9.708;2022-11-20T14:39:37;1.33;;;1.23;;
31782;SDS011;18351;47.560;9.708;2022-11-20T14:42:23;1.42;;;1.33;;
31782;SDS011;18351;47.560;9.708;2022-11-20T14:47:19;3.13;;;2.92;;
31782;SDS011;18351;47.560;9.708;2022-11-20T14:49:46;5.60;;;1.85;;
31782;SDS011;18351;47.560;9.708;2022-11-20T14:52:14;3.45;;;1.85;;
31782;SDS011;18351;47.560;9.708;2022-11-20T14:54:45;1.38;;;1.27;;
31782;SDS011;18351;47.560;9.708;2022-11-20T14:59:47;2.80;;;2.10;;
31782;SDS011;18351;47.560;9.708;2022-11-20T15:02:13;1.95;;;1.75;;
31782;SDS011;18351;47.560;9.708;2022-11-20T15:04:48;2.20;;;1.90;;
31782;SDS011;18351;47.560;9.708;2022-11-20T15:07:25;2.05;;;1.85;;
31782;SDS011;18351;47.560;9.708;2022-11-20T15:10:00;3.00;;;2.60;;
31782;SDS011;18351;47.560;9.708;2022-11-20T15:12:45;5.57;;;2.33;;
31782;SDS011;18351;47.560;9.708;2022-11-20T15:15:17;3.05;;;2.00;;
31782;SDS011;18351;47.560;9.708;2022-11-20T15:18:04;3.05;;;2.05;;
31782;SDS011;18351;47.560;9.708;2022-11-20T15:20:33;3.03;;;2.10;;
31782;SDS011;18351;47.560;9.708;2022-11-20T15:23:01;4.30;;;3.38;;
31782;SDS011;18351;47.560;9.708;2022-11-20T15:25:26;5.97;;;3.42;;
31782;SDS011;18351;47.560;9.708;2022-11-20T15:27:54;4.03;;;3.05;;
31782;SDS011;18351;47.560;9.708;2022-11-20T15:30:21;5.30;;;3.65;;
31782;SDS011;18351;47.560;9.708;2022-11-20T15:32:47;8.15;;;7.38;;
31782;SDS011;18351;47.560;9.708;2022-11-20T15:35:14;14.63;;;12.93;;
31782;SDS011;18351;47.560;9.708;2022-11-20T15:37:40;8.45;;;7.43;;
31782;SDS011;18351;47.560;9.708;2022-11-20T15:40:06;9.18;;;7.88;;
31782;SDS011;18351;47.560;9.708;2022-11-20T15:42:33;5.93;;;3.53;;
31782;SDS011;18351;47.560;9.708;2022-11-20T15:44:59;5.45;;;3.00;;
31782;SDS011;18351;47.560;9.708;2022-11-20T15:47:27;3.50;;;2.70;;
31782;SDS011;18351;47.560;9.708;2022-11-20T15:49:54;6.15;;;2.95;;
31782;SDS011;18351;47.560;9.708;2022-11-20T15:52:20;5.80;;;2.75;;
31782;SDS011;18351;47.560;9.708;2022-11-20T15:54:46;5.18;;;3.20;;
31782;SDS011;18351;47.560;9.708;2022-11-20T15:57:11;19.77;;;9.15;;
31782;SDS011;18351;47.560;9.708;2022-11-20T15:59:38;22.45;;;12.48;;
31782;SDS011;18351;47.560;9.708;2022-11-20T16:02:12;12.73;;;8.43;;
31782;SDS011;18351;47.560;9.708;2022-11-20T16:04:39;12.80;;;8.02;;
31782;SDS011;18351;47.560;9.708;2022-11-20T16:07:05;9.05;;;6.10;;
31782;SDS011;18351;47.560;9.708;2022-11-20T16:09:31;9.10;;;6.85;;
31782;SDS011;18351;47.560;9.708;2022-11-20T16:11:57;10.63;;;7.93;;
31782;SDS011;18351;47.560;9.708;2022-11-20T16:14:24;20.95;;;12.25;;
31782;SDS011;18351;47.560;9.708;2022-11-20T16:17:09;19.42;;;11.45;;
31782;SDS011;18351;47.560;9.708;2022-11-20T16:19:34;7.65;;;5.55;;
31782;SDS011;18351;47.560;9.708;2022-11-20T16:22:00;18.13;;;11.70;;
31782;SDS011;18351;47.560;9.708;2022-11-20T16:24:26;53.90;;;32.63;;
31782;SDS011;18351;47.560;9.708;2022-11-20T16:26:55;16.63;;;11.40;;
31782;SDS011;18351;47.560;9.708;2022-11-20T16:29:21;14.27;;;7.78;;
31782;SDS011;18351;47.560;9.708;2022-11-20T16:31:46;11.90;;;6.43;;
31782;SDS011;18351;47.560;9.708;2022-11-20T16:34:12;11.90;;;6.20;;
31782;SDS011;18351;47.560;9.708;2022-11-20T16:36:40;12.77;;;8.15;;
31782;SDS011;18351;47.560;9.708;2022-11-20T16:39:07;18.60;;;10.65;;
31782;SDS011;18351;47.560;9.708;2022-11-20T16:41:33;23.55;;;12.77;;
31782;SDS011;18351;47.560;9.708;2022-11-20T16:44:00;13.60;;;6.97;;
31782;SDS011;18351;47.560;9.708;2022-11-20T16:46:27;4.68;;;4.18;;
31782;SDS011;18351;47.560;9.708;2022-11-20T16:48:56;4.20;;;3.50;;
31782;SDS011;18351;47.560;9.708;2022-11-20T16:51:22;12.35;;;7.70;;
31782;SDS011;18351;47.560;9.708;2022-11-20T16:53:48;38.42;;;24.23;;